Etusivu
METAR-TAF:

METAR-TAF

Lentoasemat :

Gambell, Alaska, Yhdysvallat

Leveyspiiri: 63-46N, Pituuspiiri: 171-44W, korkeus merenpinnasta: 8 m

Tämänhetkinen sää

Tämä raportti tehtiin 8 tuntia ja 44 minuuttia sitten, kello 20.27 UTC
Tuuli 10 kn etelästä/lounaasta
Lämpötila 1°C
Kosteus 80%
Ilmanpaine 1008 hPa
Näkyvyys: 16.1 km
Pilvistä 900 ft:n korkeudessa

METAR: PAGM 022027Z AUTO 20010KT 10SM OVC009 01/M02 A2978 RMK AO2 FZRANO

Aika: 21:11 (05:11 UTC)


TAF: puuttuu

Säähavainnot ja -ennusteet yli 4000 lentoasemalta (METAR- ja TAF-raportit).

Käytössä olevat sääasemat on merkitty karttaan keltaisilla ja punaisilla pisteillä.

Aseta hiiri pisteen päälle nähdäksesi sääaseman nimen.

Klikkaa sitten nähdäksesi säähavainnot ja -ennusteet.

Kartan vaihtaminen: klikkaa mustalla rastilla varustettuja vihreitä pisteitä, niin voit zoomata sisään; viivalla varustettua vihreää pistettä, niin voit zoomata ulos tai vihreitä nuolia, niin pääset viereisille kartoille.


METAR-TAF: